In Rescue
 
Open Full Screen Window  High Contrast Mode
Wind Gusting 00 knots
03
May 13, 2021 11:14 AM EDT
Present Weather: Haze
Weather Information
Wind Direction
  340 °
Wind Speed
  03 kt (3 mph)
Wind Gust
  00 kt (0 mph)
Altimeter
30.37 in
Visibility
4 SM
Temperature
15° C
59° F
Dewpoint
02° C
36° F
Humidity
42%
Sky Condition
Clear
MVFR

METAR KCVX 131514Z AUTO 34003KT 4SM HZ CLR 15/02 A3037 RMK AO2 T01490017

FAA Disclaimer: The data displayed is for advisory purposes only and is not to be used for flight planning or operations.